Nearby METAR Reports

 

KMTN - Baltimore/Martin, Maryland, USA
Distance from station: SSE 8mi, 13km
Updated: Fri, 04-Sep-2015 4:45pm EDT
Mostly cloudy
Mostly cloudy
 Wind from ENE
Wind: ENE 12 mph , 19 km/h, Gust: 20 mph , 31 km/h
Temperature: 88°F , 31°C
Heat Index: 95°F , 35°C
Dew Point: 72°F , 22°C
Humidity: 59%
Barometer: 30.04 inHg , 1017.3 hPa
Clouds: Mostly cloudy
Visibility: 10 miles , 16 km
Cloud details: Mostly cloudy 8000 ft
2015/09/04 20:45 KMTN 042045Z 07010G17KT 10SM BKN080 31/22 A3004
KDMH - Baltimore/Dwntwn, Maryland, USA
Distance from station: SW 12mi, 19km
Updated: Fri, 04-Sep-2015 3:54pm EDT

 
Temperature: 91°F , 33°C
Heat Index: 94°F , 34°C
Dew Point: 66°F , 19°C
Humidity: 44%
Barometer: 30.01 inHg , 1016.3 hPa
2015/09/04 19:54 KDMH 041954Z AUTO 33/19 A3001 RMK AO1 SLP163 T03280189
 
KBWI - Balto/Wash Intl, Maryland, USA
Distance from station: SSW 20mi, 33km
Updated: Fri, 04-Sep-2015 4:54pm EDT
Partly cloudy
Partly cloudy
 Wind from E
Wind: E 12 mph , 19 km/h
Temperature: 88°F , 31°C
Heat Index: 91°F , 33°C
Dew Point: 66°F , 19°C
Humidity: 49%
Barometer: 30.02 inHg , 1016.6 hPa
Clouds: Partly cloudy
Visibility: 7 miles , 11 km
Cloud details: Few Clouds 5000 ft
Partly cloudy 7500 ft
Partly cloudy 25000 ft
2015/09/04 20:54 KBWI 042054Z 10010KT 7SM FEW050 SCT075 SCT250 31/19 A3002 RMK AO2 SLP163 CB DSNT NE MOV SE T03110189 55001
KDMW - Carroll Cnty, Maryland, USA
Distance from station: WNW 30mi, 48km
Updated: Fri, 04-Sep-2015 4:45pm EDT
Clear
Clear
 Wind from calm
Wind: Calm
Temperature: 79°F , 26°C
Dew Point: 73°F , 23°C
Humidity: 84%
Barometer: 30.05 inHg , 1017.6 hPa
Clouds: Clear
Visibility: 7 miles , 11 km
2015/09/04 20:45 KDMW 042045Z AUTO 00000KT 7SM CLR 26/23 A3005 RMK AO2 LTG DSNT N THRU SE
 
KNAK - Annapolis/Naval, Maryland, USA
Distance from station: S 30mi, 48km
Updated: Fri, 04-Sep-2015 4:54pm EDT
Haze, Clear
Haze, Clear
 Wind from ENE
Wind: ENE 9 mph , 15 km/h
Temperature: 88°F , 31°C
Heat Index: 93°F , 34°C
Dew Point: 70°F , 21°C
Humidity: 55%
Barometer: 30.01 inHg , 1016.3 hPa
Summary: Haze
Clouds: Clear
Visibility: 6 miles , 10 km
2015/09/04 20:54 KNAK 042054Z AUTO 07008KT 6SM HZ CLR 31/21 A3001 RMK AO2 SLP164 T03110206 56001
KW29 - Stevensville, Maryland, USA
Distance from station: SSE 31mi, 50km
Updated: Fri, 04-Sep-2015 4:48pm EDT

 Wind from ENE
Wind: ENE 9 mph , 15 km/h
Temperature: 90°F , 32°C
Heat Index: 91°F , 33°C
Dew Point: 63°F , 17°C
Humidity: 41%
Barometer: 30.01 inHg , 1016.3 hPa
Visibility: 10 miles , 16 km
2015/09/04 20:48 KW29 042048Z AUTO 07008KT 10SM 32/17 A3001 RMK AO1 LTG DSNT N
 
KCGS - College Park, Maryland, USA
Distance from station: SW 38mi, 61km
Updated: Fri, 04-Sep-2015 4:45pm EDT
Partly cloudy
Partly cloudy
 Wind from ESE
Wind: ESE 5 mph , 7 km/h
Temperature: 88°F , 31°C
Heat Index: 91°F , 33°C
Dew Point: 66°F , 19°C
Humidity: 49%
Barometer: 30.01 inHg , 1016.3 hPa
Clouds: Partly cloudy
Visibility: 10 miles , 16 km
Cloud details: Partly cloudy 4800 ft
Partly cloudy 5500 ft
Partly cloudy 7500 ft
2015/09/04 20:45 KCGS 042045Z AUTO 11004KT 10SM SCT048 SCT055 SCT075 31/19 A3001 RMK AO1
KGAI - Gaithersburg, Maryland, USA
Distance from station: WSW 40mi, 65km
Updated: Fri, 04-Sep-2015 4:55pm EDT
Clear
Clear
 Wind from calm
Wind: Calm
Temperature: 84°F , 29°C
Heat Index: 87°F , 31°C
Dew Point: 68°F , 20°C
Humidity: 58%
Barometer: 30.06 inHg , 1017.9 hPa
Clouds: Clear
Visibility: 10 miles , 16 km
2015/09/04 20:55 KGAI 042055Z AUTO 00000KT 10SM CLR 29/20 A3006 RMK AO1 54000
 
KTHV - York, Pennsylvania, USA
Distance from station: NNW 40mi, 65km
Updated: Fri, 04-Sep-2015 4:53pm EDT
Thunderstorm, Mostly cloudy
Thunderstorm, Mostly cloudy
 Wind from SSE
Wind: SSE 14 mph , 22 km/h
Temperature: 81°F , 27°C
Heat Index: 83°F , 28°C
Dew Point: 66°F , 19°C
Humidity: 62%
Barometer: 30.05 inHg , 1017.6 hPa
Summary: Thunderstorm
Clouds: Mostly cloudy
Visibility: 9 miles , 14 km
Cloud details: Mostly cloudy 5000 ft
2015/09/04 20:53 KTHV 042053Z AUTO 15012KT 9SM TS BKN050 27/19 A3005 RMK AO2 LTG DSNT SE TSB26 SLP172 T02720194 55001
KFDK - Frederick, Maryland, USA
Distance from station: W 47mi, 75km
Updated: Fri, 04-Sep-2015 4:47pm EDT
Clear
Clear
 Wind from E
Wind: E 5 mph , 7 km/h
Temperature: 84°F , 29°C
Heat Index: 89°F , 32°C
Dew Point: 72°F , 22°C
Humidity: 66%
Barometer: 30.05 inHg , 1017.6 hPa
Clouds: Clear
Visibility: 10 miles , 16 km
2015/09/04 20:47 KFDK 042047Z 09004KT 10SM SKC 29/22 A3005
 
KESN - Easton/Newnam, Maryland, USA
Distance from station: SSE 48mi, 78km
Updated: Fri, 04-Sep-2015 4:50pm EDT
Clear
Clear
 Wind from E
Wind: E 9 mph , 15 km/h, Gust: 16 mph , 26 km/h
Temperature: 90°F , 32°C
Heat Index: 93°F , 34°C
Dew Point: 66°F , 19°C
Humidity: 46%
Barometer: 30.05 inHg , 1017.6 hPa
Clouds: Clear
Visibility: 10 miles , 16 km
2015/09/04 20:50 KESN 042050Z COR 09008G14KT 10SM SKC 32/19 A3005
KDCA - Washington/Natl, Washington D.c., USA
Distance from station: SW 49mi, 79km
Updated: Fri, 04-Sep-2015 4:52pm EDT
Mostly cloudy
Mostly cloudy
 Wind from SE
Wind: SE 6 mph , 9 km/h
Temperature: 88°F , 31°C
Heat Index: 93°F , 34°C
Dew Point: 70°F , 21°C
Humidity: 55%
Barometer: 30.02 inHg , 1016.6 hPa
Clouds: Mostly cloudy
Visibility: 9 miles , 14 km
Cloud details: Few Clouds 5000 ft
Mostly cloudy 25000 ft
2015/09/04 20:52 KDCA 042052Z 14005KT 9SM FEW050 BKN250 31/21 A3002 RMK AO2 SLP164 CB DSNT NE MOV SW T03060211 53001
 
KLNS - Lancaster, Pennsylvania, USA
Distance from station: N 49mi, 79km
Updated: Fri, 04-Sep-2015 4:53pm EDT
Mostly cloudy
Mostly cloudy
 Wind from varies
Wind: varies 7 mph , 11 km/h
Temperature: 82°F , 28°C
Heat Index: 85°F , 29°C
Dew Point: 68°F , 20°C
Humidity: 62%
Barometer: 30.04 inHg , 1017.3 hPa
Clouds: Mostly cloudy
Visibility: 8 miles , 13 km
Cloud details: Few Clouds 4500 ft
Partly cloudy 6000 ft
Mostly cloudy 7000 ft
2015/09/04 20:53 KLNS 042053Z VRB06KT 8SM FEW045 SCT060 BKN070 28/20 A3004 RMK AO2 LTG DSNT S AND SW SLP169 T02830200 55002
KILG - Wilmington, Delaware, USA
Distance from station: ENE 50mi, 81km
Updated: Fri, 04-Sep-2015 4:51pm EDT
Clear
Clear
 Wind from ESE
Wind: ESE 8 mph , 13 km/h
Temperature: 81°F , 27°C
Heat Index: 85°F , 29°C
Dew Point: 70°F , 21°C
Humidity: 70%
Barometer: 30.07 inHg , 1018.3 hPa
Clouds: Clear
Visibility: 10 miles , 16 km
2015/09/04 20:51 KILG 042051Z 11007KT 10SM CLR 27/21 A3007 RMK AO2 SLP180 60000 T02720206 51012 $